createdAt,value
2023-04-01T00:00:19.942Z,98560.84
2023-04-01T00:02:52.231Z,98565.97
2023-04-01T00:05:22.190Z,98557.56
2023-04-01T00:07:52.938Z,98564.13
2023-04-01T00:10:21.415Z,98546.97
2023-04-01T00:12:51.013Z,98544.75
2023-04-01T00:15:19.444Z,98520.00
2023-04-01T00:17:47.618Z,98558.94
2023-04-01T00:20:16.711Z,98553.25
2023-04-01T00:22:47.860Z,98545.06
2023-04-01T00:25:18.677Z,98540.50
2023-04-01T00:27:49.393Z,98549.97
2023-04-01T00:30:20.297Z,98520.31
2023-04-01T00:32:48.406Z,98527.44
2023-04-01T00:35:17.297Z,98506.41
2023-04-01T00:37:45.906Z,98535.25
2023-04-01T00:40:29.228Z,98527.69
2023-04-01T00:42:57.440Z,98532.81
2023-04-01T00:45:39.923Z,98524.91
2023-04-01T00:48:12.961Z,98542.59
2023-04-01T00:50:46.222Z,98517.03
2023-04-01T00:53:19.133Z,98528.75
2023-04-01T00:55:56.272Z,98539.88
2023-04-01T00:58:31.284Z,98525.44
2023-04-01T01:01:02.309Z,98525.53
2023-04-01T01:03:32.085Z,98529.78
2023-04-01T01:06:35.704Z,98549.44
2023-04-01T01:09:22.733Z,98539.56
2023-04-01T01:11:56.839Z,98519.47
2023-04-01T01:14:38.705Z,98543.72
2023-04-01T01:17:17.208Z,98549.69
2023-04-01T01:20:23.069Z,98533.06
2023-04-01T01:23:25.795Z,98524.63
2023-04-01T01:26:08.956Z,98553.72
2023-04-01T01:28:52.136Z,98544.00
2023-04-01T01:31:27.675Z,98552.41
2023-04-01T01:34:12.786Z,98548.34
2023-04-01T01:36:48.679Z,98534.16
2023-04-01T01:39:21.418Z,98553.22
2023-04-01T01:41:53.022Z,98527.03
2023-04-01T01:44:22.788Z,98521.38
2023-04-01T01:46:54.816Z,98539.84
2023-04-01T01:49:24.962Z,98542.34
2023-04-01T01:51:55.462Z,98563.50
2023-04-01T01:54:25.676Z,98552.91
2023-04-01T01:57:02.414Z,98559.72
2023-04-01T01:59:34.040Z,98546.66
2023-04-01T02:02:09.837Z,98554.22
2023-04-01T02:04:44.283Z,98552.38
2023-04-01T02:07:19.515Z,98551.78
2023-04-01T02:09:49.184Z,98549.38
2023-04-01T02:12:19.172Z,98541.44
2023-04-01T02:14:53.879Z,98546.09
2023-04-01T02:17:29.850Z,98490.84
2023-04-01T02:20:05.826Z,98536.31
2023-04-01T02:22:42.563Z,98554.50
2023-04-01T02:25:16.908Z,98553.16
2023-04-01T02:27:54.052Z,98550.19
2023-04-01T02:30:23.919Z,98556.16
2023-04-01T02:32:55.153Z,98549.59
2023-04-01T02:35:26.735Z,98558.59
2023-04-01T02:37:59.860Z,98552.34
2023-04-01T02:40:29.918Z,98532.78
2023-04-01T02:42:57.827Z,98546.09
2023-04-01T02:45:25.921Z,98545.03
2023-04-01T02:47:55.456Z,98544.75
2023-04-01T02:50:26.370Z,98545.00
2023-04-01T02:52:59.110Z,98554.75
2023-04-01T02:55:28.806Z,98552.84
2023-04-01T02:58:01.010Z,98544.41
2023-04-01T03:00:32.081Z,98545.28
2023-04-01T03:03:08.224Z,98535.19
2023-04-01T03:05:37.981Z,98537.06
2023-04-01T03:08:09.049Z,98522.38
2023-04-01T03:10:40.482Z,98531.94
2023-04-01T03:13:08.760Z,98515.88
2023-04-01T03:15:38.920Z,98531.34
2023-04-01T03:18:08.869Z,98536.78
2023-04-01T03:20:38.700Z,98540.06
2023-04-01T03:23:09.892Z,98548.97
2023-04-01T03:25:37.755Z,98541.09
2023-04-01T03:28:20.011Z,98543.84
2023-04-01T03:30:51.404Z,98539.53
2023-04-01T03:33:23.005Z,98533.28
2023-04-01T03:35:53.382Z,98535.09
2023-04-01T03:38:28.142Z,98539.44
2023-04-01T03:40:58.849Z,98512.25
2023-04-01T03:43:27.310Z,98538.66
2023-04-01T03:45:59.671Z,98484.19
2023-04-01T03:48:30.302Z,98543.50
2023-04-01T03:51:01.414Z,98539.13
2023-04-01T03:53:34.807Z,98543.50
2023-04-01T03:56:10.425Z,98542.94
2023-04-01T03:58:39.811Z,98546.75
2023-04-01T04:01:17.978Z,98528.81
2023-04-01T04:03:51.667Z,98540.00
2023-04-01T04:06:27.980Z,98526.13
2023-04-01T04:09:03.352Z,98532.69
2023-04-01T04:11:34.299Z,98522.59
2023-04-01T04:14:06.440Z,98514.16
2023-04-01T04:16:37.603Z,98529.47
2023-04-01T04:19:11.146Z,98493.25
2023-04-01T04:21:39.283Z,98522.91
2023-04-01T04:24:12.053Z,98526.94
2023-04-01T04:26:43.070Z,98519.63
2023-04-01T04:29:12.604Z,98508.19
2023-04-01T04:31:40.825Z,98517.47
2023-04-01T04:34:08.832Z,98517.47
2023-04-01T04:36:38.030Z,98507.34
2023-04-01T04:39:09.202Z,98516.34
2023-04-01T04:41:41.314Z,98494.03
2023-04-01T04:44:10.415Z,98519.88
2023-04-01T04:46:40.335Z,98538.38
2023-04-01T04:49:09.880Z,98527.25
2023-04-01T04:51:39.200Z,98527.25
2023-04-01T04:54:10.604Z,98537.81
2023-04-01T04:56:41.634Z,98518.28
2023-04-01T04:59:10.485Z,98526.94
2023-04-01T05:01:38.955Z,98544.03
2023-04-01T05:04:07.163Z,98529.94
2023-04-01T05:06:35.538Z,98515.22
2023-04-01T05:09:06.306Z,98530.19
2023-04-01T05:11:36.401Z,98533.69
2023-04-01T05:14:11.886Z,98532.34
2023-04-01T05:16:41.738Z,98521.13
2023-04-01T05:19:11.660Z,98528.78
2023-04-01T05:21:43.250Z,98530.94
2023-04-01T05:24:14.491Z,98524.75
2023-04-01T05:26:43.064Z,98522.22
2023-04-01T05:29:17.125Z,98522.03
2023-04-01T05:31:45.545Z,98523.91
2023-04-01T05:34:16.600Z,98512.00
2023-04-01T05:36:45.145Z,98518.44
2023-04-01T05:39:14.016Z,98522.59
2023-04-01T05:41:42.588Z,98533.19
2023-04-01T05:44:16.914Z,98536.16
2023-04-01T05:46:45.783Z,98520.84
2023-04-01T05:49:16.078Z,98525.50
2023-04-01T05:51:46.274Z,98482.53
2023-04-01T05:54:17.300Z,98513.81
2023-04-01T05:56:48.224Z,98536.03
2023-04-01T05:59:20.962Z,98529.00
2023-04-01T06:01:49.356Z,98529.44
2023-04-01T06:04:20.600Z,98533.81
2023-04-01T06:06:51.102Z,98531.88
2023-04-01T06:09:35.288Z,98540.28
2023-04-01T06:12:20.631Z,98519.84
2023-04-01T06:15:05.901Z,98477.91
2023-04-01T06:17:55.124Z,98543.47
2023-04-01T06:20:30.776Z,98537.53
2023-04-01T06:23:23.184Z,98542.16
2023-04-01T06:26:17.240Z,98552.44
2023-04-01T06:29:18.584Z,98548.78
2023-04-01T06:32:08.717Z,98544.09
2023-04-01T06:34:52.969Z,98547.09
2023-04-01T06:37:45.851Z,98541.97
2023-04-01T06:40:40.303Z,98551.25
2023-04-01T06:43:19.353Z,98550.44
2023-04-01T06:45:56.048Z,98552.31
2023-04-01T06:48:41.139Z,98543.16
2023-04-01T06:51:23.759Z,98537.34
2023-04-01T06:54:01.903Z,98549.94
2023-04-01T06:56:34.758Z,98522.84
2023-04-01T06:59:09.126Z,98508.84
2023-04-01T07:01:42.765Z,98540.94
2023-04-01T07:04:19.824Z,98543.16
2023-04-01T07:06:52.764Z,98535.22
2023-04-01T07:09:23.347Z,98538.81
2023-04-01T07:11:56.060Z,98548.78
2023-04-01T07:14:33.160Z,98547.94
2023-04-01T07:17:08.123Z,98551.81
2023-04-01T07:19:47.259Z,98551.69
2023-04-01T07:22:28.301Z,98554.38
2023-04-01T07:24:59.126Z,98551.34
2023-04-01T07:27:27.761Z,98548.41
2023-04-01T07:29:58.801Z,98542.41
2023-04-01T07:32:43.235Z,98551.19
2023-04-01T07:35:31.598Z,98560.13
2023-04-01T07:38:27.089Z,98565.38
2023-04-01T07:41:04.541Z,98541.84
2023-04-01T07:44:31.259Z,98572.53
2023-04-01T07:47:20.174Z,98574.34
2023-04-01T07:50:02.548Z,98569.25
2023-04-01T07:52:40.893Z,98579.28
2023-04-01T07:55:19.684Z,98572.22
2023-04-01T07:57:56.050Z,98576.38
2023-04-01T08:00:29.356Z,98584.56
2023-04-01T08:03:19.716Z,98576.44
2023-04-01T08:06:00.128Z,98575.09
2023-04-01T08:12:07.235Z,98583.00
2023-04-01T08:14:45.932Z,98595.34
2023-04-01T08:17:22.110Z,98580.34
2023-04-01T08:20:12.392Z,98590.78
2023-04-01T08:22:52.705Z,98572.78
2023-04-01T08:25:32.029Z,98574.16
2023-04-01T08:28:05.783Z,98594.56
2023-04-01T08:30:43.356Z,98595.16
2023-04-01T08:33:17.966Z,98586.44
2023-04-01T08:35:54.064Z,98603.31
2023-04-01T08:38:33.898Z,98600.78
2023-04-01T08:41:25.351Z,98592.66
2023-04-01T08:44:20.345Z,98591.28
2023-04-01T08:47:11.744Z,98598.09
2023-04-01T08:49:58.730Z,98587.72
2023-04-01T08:52:40.688Z,98582.66
2023-04-01T08:55:36.648Z,98597.31
2023-04-01T08:58:44.868Z,98595.16
2023-04-01T09:01:30.148Z,98605.72
2023-04-01T09:04:24.290Z,98560.06
2023-04-01T09:07:15.085Z,98580.19
2023-04-01T09:10:42.197Z,98616.38
2023-04-01T09:13:51.741Z,98609.00
2023-04-01T09:16:58.278Z,98610.38
2023-04-01T09:19:40.224Z,98608.47
2023-04-01T09:22:28.565Z,98610.66
2023-04-01T09:25:40.796Z,98617.50
2023-04-01T09:28:17.509Z,98608.97
2023-04-01T09:31:18.249Z,98620.66
2023-04-01T09:34:20.476Z,98620.13
2023-04-01T09:37:22.269Z,98631.06
2023-04-01T09:40:13.375Z,98626.38
2023-04-01T09:42:47.301Z,98626.19
2023-04-01T09:45:48.289Z,98635.94
2023-04-01T09:48:29.644Z,98624.81
2023-04-01T09:51:09.559Z,98639.16
2023-04-01T09:54:00.143Z,98632.13
2023-04-01T09:57:15.201Z,98591.56
2023-04-01T10:00:07.121Z,98632.16
2023-04-01T10:03:00.697Z,98634.88
2023-04-01T10:06:17.239Z,98637.63
2023-04-01T10:09:04.765Z,98639.81
2023-04-01T10:12:24.479Z,98635.19
2023-04-01T10:15:45.158Z,98644.66
2023-04-01T10:18:41.546Z,98647.66
2023-04-01T10:21:52.664Z,98645.19
2023-04-01T10:24:52.286Z,98644.09
2023-04-01T10:28:10.289Z,98650.41
2023-04-01T10:31:10.832Z,98641.97
2023-04-01T10:34:16.674Z,98642.75
2023-04-01T10:37:01.283Z,98647.44
2023-04-01T10:40:09.526Z,98650.16
2023-04-01T10:43:08.732Z,98648.25
2023-04-01T10:46:15.605Z,98643.91
2023-04-01T10:49:32.023Z,98652.06
2023-04-01T10:52:38.219Z,98650.16
2023-04-01T10:55:48.762Z,98644.97
2023-04-01T10:58:58.709Z,98638.47
2023-04-01T11:02:12.382Z,98641.72
2023-04-01T11:05:37.447Z,98643.38
2023-04-01T11:08:33.547Z,98638.47
2023-04-01T11:11:42.774Z,98658.06
2023-04-01T11:14:51.254Z,98649.63
2023-04-01T11:18:07.408Z,98643.91
2023-04-01T11:21:17.470Z,98655.34
2023-04-01T11:24:22.392Z,98660.22
2023-04-01T11:27:04.609Z,98657.19
2023-04-01T11:30:05.317Z,98653.69
2023-04-01T11:32:57.295Z,98662.69
2023-04-01T11:35:59.193Z,98654.47
2023-04-01T11:38:52.868Z,98657.97
2023-04-01T11:41:35.037Z,98654.34
2023-04-01T11:44:23.073Z,98667.06
2023-04-01T11:47:08.722Z,98665.13
2023-04-01T11:49:57.246Z,98645.78
2023-04-01T11:53:00.469Z,98660.75
2023-04-01T11:55:44.869Z,98661.00
2023-04-01T11:58:39.283Z,98670.59
2023-04-01T12:01:20.765Z,98648.78
2023-04-01T12:04:19.038Z,98663.78
2023-04-01T12:06:59.774Z,98637.09
2023-04-01T12:09:37.260Z,98660.50
2023-04-01T12:12:18.337Z,98663.50
2023-04-01T12:14:57.770Z,98664.31
2023-04-01T12:17:37.001Z,98620.50
2023-04-01T12:20:29.488Z,98667.06
2023-04-01T12:23:11.525Z,98689.59
2023-04-01T12:26:06.937Z,98669.19
2023-04-01T12:28:51.353Z,98690.44
2023-04-01T12:31:30.174Z,98684.38
2023-04-01T12:34:33.485Z,98687.09
2023-04-01T12:37:14.987Z,98698.47
2023-04-01T12:40:19.695Z,98693.59
2023-04-01T12:43:01.064Z,98666.44
2023-04-01T12:45:35.596Z,98663.69
2023-04-01T12:48:42.461Z,98672.91
2023-04-01T12:51:38.905Z,98693.06
2023-04-01T12:54:52.407Z,98683.03
2023-04-01T12:57:46.441Z,98715.38
2023-04-01T13:00:31.083Z,98711.91
2023-04-01T13:03:19.749Z,98704.59
2023-04-01T13:06:21.294Z,98714.59
2023-04-01T13:09:03.745Z,98705.59
2023-04-01T13:11:44.683Z,98699.91
2023-04-01T13:14:35.487Z,98707.53
2023-04-01T13:17:16.188Z,98714.38
2023-04-01T13:20:02.402Z,98717.66
2023-04-01T13:22:45.278Z,98714.16
2023-04-01T13:25:29.364Z,98715.53
2023-04-01T13:28:06.645Z,98728.31
2023-04-01T13:30:41.579Z,98720.41
2023-04-01T13:33:24.860Z,98723.66
2023-04-01T13:36:15.277Z,98682.00
2023-04-01T13:39:00.499Z,98727.44
2023-04-01T13:41:49.150Z,98722.25
2023-04-01T13:44:25.411Z,98706.75
2023-04-01T13:47:11.512Z,98714.06
2023-04-01T13:50:07.044Z,98719.91
2023-04-01T13:53:04.297Z,98715.38
2023-04-01T13:55:55.877Z,98714.38
2023-04-01T13:59:05.724Z,98736.53
2023-04-01T14:01:45.925Z,98724.72
2023-04-01T14:04:50.241Z,98717.34
2023-04-01T14:07:39.123Z,98731.38
2023-04-01T14:10:21.112Z,98708.88
2023-04-01T14:12:58.948Z,98747.16
2023-04-01T14:15:53.595Z,98710.16
2023-04-01T14:18:38.141Z,98717.72
2023-04-01T14:21:25.347Z,98716.66
2023-04-01T14:24:28.882Z,98719.84
2023-04-01T14:27:20.550Z,98717.03
2023-04-01T14:30:04.491Z,98725.53
2023-04-01T14:32:45.560Z,98714.97
2023-04-01T14:35:44.698Z,98738.63
2023-04-01T14:38:55.661Z,98724.59
2023-04-01T14:41:48.569Z,98689.94
2023-04-01T14:45:08.068Z,98740.34
2023-04-01T14:47:53.357Z,98728.06
2023-04-01T14:50:34.502Z,98742.06
2023-04-01T14:53:17.730Z,98745.72
2023-04-01T14:55:53.941Z,98746.00
2023-04-01T14:58:41.232Z,98751.63
2023-04-01T15:01:48.980Z,98762.22
2023-04-01T15:05:03.193Z,98754.47
2023-04-01T15:08:30.032Z,98771.63
2023-04-01T15:11:27.909Z,98756.56
2023-04-01T15:14:26.210Z,98768.50
2023-04-01T15:17:14.192Z,98766.78
2023-04-01T15:20:03.866Z,98777.03
2023-04-01T15:22:50.873Z,98764.34
2023-04-01T15:25:32.601Z,98775.59
2023-04-01T15:28:15.273Z,98779.84
2023-04-01T15:31:02.476Z,98754.88
2023-04-01T15:33:52.816Z,98790.59
2023-04-01T15:36:41.432Z,98781.03
2023-04-01T15:39:17.838Z,98791.47
2023-04-01T15:42:26.303Z,98814.66
2023-04-01T15:45:22.056Z,98805.91
2023-04-01T15:48:01.427Z,98813.53
2023-04-01T15:51:06.248Z,98816.84
2023-04-01T15:54:02.851Z,98811.66
2023-04-01T15:57:07.101Z,98813.50
2023-04-01T16:00:06.047Z,98823.28
2023-04-01T16:02:45.233Z,98813.81
2023-04-01T16:05:40.747Z,98823.09
2023-04-01T16:08:41.071Z,98827.72
2023-04-01T16:11:23.951Z,98829.91
2023-04-01T16:14:10.593Z,98834.81
2023-04-01T16:16:59.137Z,98830.19
2023-04-01T16:19:46.685Z,98784.91
2023-04-01T16:22:23.514Z,98813.00
2023-04-01T16:25:21.213Z,98838.09
2023-04-01T16:28:06.161Z,98783.81
2023-04-01T16:30:40.018Z,98801.59
2023-04-01T16:33:17.336Z,98841.34
2023-04-01T16:36:13.798Z,98842.19
2023-04-01T16:38:59.468Z,98850.06
2023-04-01T16:43:02.112Z,98824.47
2023-04-01T16:45:33.453Z,98859.91
2023-04-01T16:48:21.954Z,98840.53
2023-04-01T16:50:57.919Z,98852.53
2023-04-01T16:53:39.828Z,98879.50
2023-04-01T16:56:15.083Z,98865.03
2023-04-01T16:59:01.943Z,98847.06
2023-04-01T17:01:35.257Z,98877.59
2023-04-01T17:04:15.794Z,98884.13
2023-04-01T17:06:50.613Z,98880.56
2023-04-01T17:09:36.570Z,98867.63
2023-04-01T17:12:15.696Z,98907.16
2023-04-01T17:14:56.637Z,98911.00
2023-04-01T17:17:40.240Z,98898.22
2023-04-01T17:20:17.610Z,98909.72
2023-04-01T17:22:55.821Z,98900.13
2023-04-01T17:25:36.300Z,98897.38
2023-04-01T17:28:16.998Z,98912.88
2023-04-01T17:30:52.401Z,98913.16
2023-04-01T17:33:38.139Z,98909.31
2023-04-01T17:36:14.665Z,98916.63
2023-04-01T17:39:15.600Z,98907.03
2023-04-01T17:41:51.450Z,98932.31
2023-04-01T17:44:36.106Z,98939.34
2023-04-01T17:47:20.516Z,98905.50
2023-04-01T17:50:04.590Z,98925.94
2023-04-01T17:52:40.165Z,98955.09
2023-04-01T17:55:34.071Z,98925.59
2023-04-01T17:58:11.003Z,98965.34
2023-04-01T18:00:54.619Z,98975.41
2023-04-01T18:03:58.493Z,98960.16
2023-04-01T18:06:51.906Z,98968.56
2023-04-01T18:10:06.332Z,98979.50
2023-04-01T18:12:49.910Z,98998.56
2023-04-01T18:15:46.784Z,98952.22
2023-04-01T18:21:53.999Z,99001.69
2023-04-01T18:27:34.127Z,99033.16
2023-04-01T18:30:11.242Z,99027.34
2023-04-01T18:32:54.771Z,99037.72
2023-04-01T18:35:37.547Z,99033.00
2023-04-01T18:41:48.512Z,99055.28
2023-04-01T18:44:30.983Z,99049.75
2023-04-01T18:47:19.486Z,99050.06
2023-04-01T18:49:59.646Z,99043.31
2023-04-01T18:55:49.962Z,99066.38
2023-04-01T18:58:46.407Z,99075.22
2023-04-01T19:01:33.876Z,99079.72
2023-04-01T19:04:31.792Z,99070.53
2023-04-01T19:07:04.423Z,99079.47
2023-04-01T19:09:46.755Z,99094.69
2023-04-01T19:12:50.658Z,99087.63
2023-04-01T19:18:55.726Z,99106.69
2023-04-01T19:21:37.995Z,99108.66
2023-04-01T19:24:43.505Z,99111.78
2023-04-01T19:27:31.212Z,99105.72
2023-04-01T19:30:19.404Z,99114.41
2023-04-01T19:32:59.190Z,99096.38
2023-04-01T19:35:40.700Z,99114.66
2023-04-01T19:38:17.926Z,99078.94
2023-04-01T19:40:59.005Z,99118.94
2023-04-01T19:43:51.371Z,99120.53
2023-04-01T19:46:32.963Z,99129.06
2023-04-01T19:49:22.654Z,99122.47
2023-04-01T19:51:58.767Z,99109.69
2023-04-01T19:54:41.719Z,99120.25
2023-04-01T19:57:25.848Z,99115.88
2023-04-01T20:00:05.248Z,99132.72
2023-04-01T20:02:53.162Z,99121.06
2023-04-01T20:05:37.495Z,99145.34
2023-04-01T20:08:17.457Z,99158.69
2023-04-01T20:10:56.384Z,99158.38
2023-04-01T20:13:35.634Z,99128.88
2023-04-01T20:16:07.269Z,99166.84
2023-04-01T20:18:48.788Z,99165.44
2023-04-01T20:21:31.234Z,99151.56
2023-04-01T20:24:04.956Z,99167.72
2023-04-01T20:26:41.868Z,99139.78
2023-04-01T20:29:32.925Z,99189.47
2023-04-01T20:32:13.881Z,99164.38
2023-04-01T20:35:01.527Z,99196.78
2023-04-01T20:37:43.094Z,99194.31
2023-04-01T20:40:32.501Z,99201.88
2023-04-01T20:43:23.217Z,99201.03
2023-04-01T20:45:58.976Z,99211.34
2023-04-01T20:48:44.100Z,99207.22
2023-04-01T20:51:17.858Z,99212.63
2023-04-01T20:53:56.605Z,99194.47
2023-04-01T20:56:37.249Z,99224.91
2023-04-01T20:59:27.247Z,99217.94
2023-04-01T21:02:06.823Z,99226.91
2023-04-01T21:04:56.232Z,99216.50
2023-04-01T21:07:35.877Z,99232.31
2023-04-01T21:10:22.831Z,99231.66
2023-04-01T21:13:06.065Z,99246.88
2023-04-01T21:15:47.659Z,99234.78
2023-04-01T21:18:39.212Z,99247.78
2023-04-01T21:21:37.650Z,99252.72
2023-04-01T21:24:35.817Z,99255.91
2023-04-01T21:27:21.648Z,99268.41
2023-04-01T21:29:58.513Z,99276.06
2023-04-01T21:33:02.826Z,99274.91
2023-04-01T21:35:41.259Z,99281.06
2023-04-01T21:38:33.889Z,99279.28
2023-04-01T21:41:27.523Z,99283.66
2023-04-01T21:44:37.174Z,99294.97
2023-04-01T21:47:23.800Z,99288.53
2023-04-01T21:50:32.616Z,99295.38
2023-04-01T21:53:33.784Z,99287.13
2023-04-01T21:56:31.894Z,99304.53
2023-04-01T21:59:38.098Z,99288.06
2023-04-01T22:02:36.205Z,99290.59
2023-04-01T22:05:12.796Z,99313.63
2023-04-01T22:07:54.756Z,99313.91
2023-04-01T22:10:35.412Z,99313.97
2023-04-01T22:13:17.643Z,99309.72
2023-04-01T22:16:02.004Z,99311.75
2023-04-01T22:18:35.853Z,99320.72
2023-04-01T22:21:17.484Z,99316.03
2023-04-01T22:23:50.752Z,99318.56
2023-04-01T22:26:26.493Z,99312.56
2023-04-01T22:29:05.122Z,99236.97
2023-04-01T22:31:41.097Z,99328.19
2023-04-01T22:34:19.333Z,99334.06
2023-04-01T22:36:58.055Z,99340.94
2023-04-01T22:39:42.212Z,99329.75
2023-04-01T22:42:26.514Z,99341.38
2023-04-01T22:45:11.673Z,99302.50
2023-04-01T22:47:52.782Z,99353.63
2023-04-01T22:50:23.978Z,99336.25
2023-04-01T22:53:03.034Z,99342.75
2023-04-01T22:55:38.048Z,99356.56
2023-04-01T22:58:33.528Z,99358.34
2023-04-01T23:01:11.089Z,99358.69
2023-04-01T23:03:43.557Z,99368.63
2023-04-01T23:06:19.959Z,99364.56
2023-04-01T23:09:02.410Z,99366.50
2023-04-01T23:11:34.361Z,99369.66
2023-04-01T23:14:35.169Z,99369.09
2023-04-01T23:17:28.623Z,99367.28
2023-04-01T23:20:08.593Z,99369.06
2023-04-01T23:22:40.987Z,99378.22
2023-04-01T23:25:24.997Z,99376.66
2023-04-01T23:28:00.968Z,99375.56
2023-04-01T23:30:58.270Z,99386.31
2023-04-01T23:33:36.643Z,99384.69
2023-04-01T23:36:15.219Z,99389.75
2023-04-01T23:38:57.543Z,99397.06
2023-04-01T23:41:29.023Z,99395.63
2023-04-01T23:44:03.774Z,99400.81
2023-04-01T23:46:34.487Z,99385.53
2023-04-01T23:49:08.196Z,99373.94
2023-04-01T23:51:41.465Z,99407.00
2023-04-01T23:54:22.982Z,99403.69
2023-04-01T23:56:57.284Z,99410.53
2023-04-01T23:59:31.694Z,99411.81
